Flight Track Log - Related Links

Times and Time Zones

All times are in EDT time to prevent confusion due to time zone crossing. See the CSZ9804 flight status page for this flight to view local times or setup timezone preferences in your user account.

Time Position Orientation Groundspeed Altitude Reporting Facility
EDT Latitude Longitude Course Direction KTS MPH feet Rate Location/Type
Wed 09:03:00 AM 28.3106 121.0772 231° Southwest  Level Estimated
Wed 09:04:00 AM 28.2476 120.9896 231° Southwest  Level Estimated
Wed 09:05:00 AM 28.1845 120.9021 231° Southwest  Level Estimated
Wed 09:06:00 AM 28.1214 120.8148 231° Southwest  Level Estimated
Wed 09:07:00 AM 28.0582 120.7275 231° Southwest  Level Estimated
Wed 09:08:00 AM 27.9949 120.6403 231° Southwest  Level Estimated
Wed 09:09:00 AM 27.9316 120.5532 231° Southwest  Level Estimated
Wed 09:10:00 AM 27.8682 120.4662 231° Southwest  Level Estimated
Wed 09:10:39 AM 28.3090 120.6840 230° Southwest 357 411 19,700  Level FlightAware ADS-B
Wed 09:11:00 AM 27.8048 120.3794 230° Southwest  Level Estimated
Wed 09:11:04 AM 28.2670 120.6800 185° South 357 411 19,700  Level FlightAware ADS-B
Wed 09:11:53 AM 28.1880 120.6720 185° South 357 411 19,700  Level FlightAware ADS-B
Wed 09:12:30 AM 28.1240 120.6660 185° South 357 411 19,700  Level FlightAware ADS-B
Wed 09:13:05 AM 28.0690 120.6600 185° South 357 411 19,700  Level FlightAware ADS-B
Wed 09:13:42 AM 28.0060 120.6550 184° South 358 412 19,700  Level FlightAware ADS-B
Wed 09:14:18 AM 27.9460 120.6490 185° South 359 413 19,700  Level FlightAware ADS-B
Wed 09:14:58 AM 27.8820 120.6430 185° South 359 413 19,700  Level FlightAware ADS-B
Wed 09:15:35 AM 27.8200 120.6370 185° South 359 413 19,700  Level FlightAware ADS-B
Wed 09:16:07 AM 27.7710 120.6310 186° South 358 412 19,700  Level FlightAware ADS-B
Wed 09:16:52 AM 27.7030 120.6040 199° South 358 412 19,700  Level FlightAware ADS-B
Wed 09:17:40 AM 27.6390 120.5510 216° Southwest 359 413 19,700  Level FlightAware ADS-B
Wed 09:18:28 AM 27.5690 120.5020 212° Southwest 359 413 19,700  Level FlightAware ADS-B
Wed 09:18:59 AM 27.5210 120.4670 213° Southwest 360 414 19,700  Level FlightAware ADS-B
Wed 09:19:38 AM 27.4650 120.4270 212° Southwest 360 414 19,700  Level FlightAware ADS-B
Wed 09:20:14 AM 27.4140 120.3910 212° Southwest 359 413 19,700  Level FlightAware ADS-B
Wed 09:21:02 AM 27.3470 120.3440 212° Southwest 359 413 19,700  Level FlightAware ADS-B
Wed 09:21:53 AM 27.2830 120.2990 212° Southwest 359 413 19,700  Level FlightAware ADS-B
Wed 09:22:24 AM 27.2330 120.2630 213° Southwest 359 413 19,700  Level FlightAware ADS-B
Wed 09:22:54 AM 27.1900 120.2330 212° Southwest 358 412 19,700  Level FlightAware ADS-B
Wed 09:23:57 AM 27.1030 120.1720 212° Southwest 359 413 19,700 429 Level FlightAware ADS-B
Wed 09:24:18 AM 27.0750 120.1420 224° Southwest 363 418 20,300 1,759 Climbing FlightAware ADS-B
Wed 09:24:55 AM 27.0420 120.0840 237° Southwest 374 430 21,400 1,818 Climbing FlightAware ADS-B
Wed 09:25:24 AM 27.0080 120.0390 230° Southwest 379 436 22,300 1,739 Climbing FlightAware ADS-B
Wed 09:26:04 AM 26.9500 119.9970 213° Southwest 389 448 23,400 1,818 Climbing FlightAware ADS-B
Wed 09:26:30 AM 26.9080 119.9670 212° Southwest 390 449 24,300 2,032 Climbing FlightAware ADS-B
Wed 09:27:06 AM 26.8540 119.9290 212° Southwest 389 448 25,500 1,083 Climbing FlightAware ADS-B
Wed 09:27:42 AM 26.7990 119.8890 213° Southwest 392 451 25,600 82 Climbing FlightAware ADS-B
Wed 09:28:19 AM 26.7420 119.8500 211° Southwest 394 453 25,600  Level FlightAware ADS-B
Wed 09:28:52 AM 26.6900 119.8130 212° Southwest 394 453 25,600  Level FlightAware ADS-B
Wed 09:29:26 AM 26.6390 119.7760 213° Southwest 394 453 25,600  Level FlightAware ADS-B
Wed 09:30:04 AM 26.5800 119.7350 212° Southwest 394 453 25,600  Level FlightAware ADS-B
Wed 09:30:35 AM 26.5330 119.7020 212° Southwest 394 453 25,600  Level FlightAware ADS-B
Wed 09:31:12 AM 26.4750 119.6610 212° Southwest 394 453 25,600  Level FlightAware ADS-B
Wed 09:31:46 AM 26.4230 119.6250 212° Southwest 393 452 25,600  Level FlightAware ADS-B
Wed 09:32:33 AM 26.3580 119.5790 212° Southwest 392 451 25,600  Level FlightAware ADS-B
Wed 09:33:10 AM 26.3090 119.5450 212° Southwest 392 451 25,600  Level FlightAware ADS-B
Wed 09:33:54 AM 26.2350 119.4930 212° Southwest 392 451 25,600  Level FlightAware ADS-B
Wed 09:34:30 AM 26.1880 119.4600 212° Southwest 392 451 25,600  Level FlightAware ADS-B
Wed 09:34:49 AM 26.1290 119.4590 181° South 389 448 25,600  Level FlightAware ADS-B
Wed 09:35:24 AM 26.0680 119.4380 197° South 389 448 25,600  Level FlightAware ADS-B
Wed 09:36:01 AM 26.0060 119.4170 197° South 390 449 25,600  Level FlightAware ADS-B
Wed 09:36:13 AM 25.9870 119.4090 201° Southwest 392 451 25,600  Level FlightAware ADS-B
Wed 09:36:29 AM 25.9580 119.3900 211° Southwest 404 465 25,600  Level FlightAware ADS-B
Wed 09:37:01 AM 25.9120 119.3450 221° Southwest 411 473 25,600  Level FlightAware ADS-B
Wed 09:37:36 AM 25.8640 119.2970 222° Southwest 412 474 25,600  Level FlightAware ADS-B
Wed 09:38:13 AM 25.8150 119.2480 222° Southwest 414 476 25,600  Level FlightAware ADS-B
Wed 09:38:46 AM 25.7640 119.1970 222° Southwest 414 476 25,600  Level FlightAware ADS-B
Wed 09:39:24 AM 25.7100 119.1430 222° Southwest 415 478 25,600  Level FlightAware ADS-B
Wed 09:39:55 AM 25.6650 119.0980 222° Southwest 415 478 25,600  Level FlightAware ADS-B
Wed 09:40:31 AM 25.6140 119.0480 221° Southwest 415 478 25,600  Level FlightAware ADS-B
Wed 09:41:08 AM 25.5620 118.9960 222° Southwest 414 476 25,600  Level FlightAware ADS-B
Wed 09:41:44 AM 25.5130 118.9470 222° Southwest 414 476 25,600  Level FlightAware ADS-B
Wed 09:42:17 AM 25.4620 118.8960 222° Southwest 414 476 25,600  Level FlightAware ADS-B
Wed 09:42:53 AM 25.4100 118.8440 222° Southwest 414 476 25,600  Level FlightAware ADS-B
Wed 09:43:27 AM 25.3620 118.7970 222° Southwest 415 478 25,600  Level FlightAware ADS-B
Wed 09:44:03 AM 25.3100 118.7460 222° Southwest 414 476 25,600  Level FlightAware ADS-B
Wed 09:44:38 AM 25.2610 118.6980 222° Southwest 415 478 25,600  Level FlightAware ADS-B
Wed 09:45:11 AM 25.2120 118.6490 222° Southwest 418 481 25,600  Level FlightAware ADS-B
Wed 09:45:53 AM 25.1590 118.5980 221° Southwest 417 480 25,600  Level FlightAware ADS-B
Wed 09:46:29 AM 25.1150 118.5550 222° Southwest 417 480 25,600  Level FlightAware ADS-B
Wed 09:47:05 AM 25.0700 118.5120 221° Southwest 417 480 25,600  Level FlightAware ADS-B
Wed 09:47:41 AM 25.0260 118.4700 221° Southwest 417 480 25,600  Level FlightAware ADS-B
Wed 09:48:17 AM 24.9810 118.4270 221° Southwest 417 480 25,600  Level FlightAware ADS-B
Wed 09:48:53 AM 24.9370 118.3840 222° Southwest 417 480 25,600 -174 Level FlightAware ADS-B
Wed 09:51:00 AM 24.8384 118.1786 242° Southwest  Level Estimated
Wed 09:52:00 AM 24.7917 118.0816 242° Southwest  Level Estimated
Wed 09:53:00 AM 24.7450 117.9847 242° Southwest  Level Estimated
Wed 09:54:00 AM 24.6982 117.8879 242° Southwest  Level Estimated
Wed 09:55:00 AM 24.6513 117.7912 242° Southwest  Level Estimated
Wed 09:56:00 AM 24.6043 117.6945 242° Southwest  Level Estimated
Wed 09:57:00 AM 24.5574 117.5979 242° Southwest  Level Estimated
Wed 09:58:00 AM 24.5103 117.5014 242° Southwest  Level Estimated
Wed 09:59:00 AM 24.4632 117.4050 242° Southwest  Level Estimated
Wed 10:00:00 AM 24.4160 117.3086 242° Southwest  Level Estimated
Wed 10:01:00 AM 24.3688 117.2123 242° Southwest  Level Estimated
Wed 10:02:00 AM 24.3215 117.1161 242° Southwest  Level Estimated
Wed 10:03:00 AM 24.2741 117.0199 242° Southwest  Level Estimated
Wed 10:04:00 AM 24.2267 116.9239 242° Southwest  Level Estimated
Wed 10:05:00 AM 24.1792 116.8279 242° Southwest  Level Estimated
Wed 10:06:00 AM 24.1317 116.7319 242° Southwest  Level Estimated
Wed 10:07:00 AM 24.0841 116.6360 241° Southwest  Level Estimated
Wed 10:08:00 AM 24.0364 116.5402 241° Southwest  Level Estimated
Wed 10:09:00 AM 23.9887 116.4445 241° Southwest  Level Estimated
Wed 10:10:00 AM 23.9409 116.3489 241° Southwest  Level Estimated
Wed 10:11:00 AM 23.8931 116.2533 241° Southwest  Level Estimated
Wed 10:12:00 AM 23.8452 116.1578 241° Southwest  Level Estimated
Wed 10:13:00 AM 23.7972 116.0623 241° Southwest  Level Estimated
Wed 10:14:00 AM 23.7492 115.9670 241° Southwest  Level Estimated
Wed 10:15:00 AM 23.7011 115.8717 241° Southwest  Level Estimated
Wed 10:16:00 AM 23.6530 115.7764 241° Southwest  Level Estimated
Wed 10:17:00 AM 23.6048 115.6813 241° Southwest  Level Estimated
Wed 10:18:00 AM 23.5565 115.5862 241° Southwest  Level Estimated
Wed 10:19:00 AM 23.5082 115.4912 241° Southwest  Level Estimated
Wed 10:20:00 AM 23.4599 115.3962 241° Southwest  Level Estimated
Wed 10:21:00 AM 23.4114 115.3013 241° Southwest  Level Estimated
Wed 10:21:38 AM 22.8360 115.2520 241° Southwest 388 447 19,800  Level FlightAware ADS-B
Wed 10:22:00 AM 23.3630 115.2065 241° Southwest  Level Estimated
Wed 10:22:14 AM 22.8290 115.1920 263° West 387 445 19,600  Level FlightAware ADS-B
Wed 10:22:51 AM 22.8230 115.1320 264° West 387 445 19,600  Level FlightAware ADS-B
Wed 10:23:25 AM 22.8160 115.0760 262° West 387 445 19,600  Level FlightAware ADS-B
Wed 10:24:01 AM 22.8100 115.0170 264° West 387 445 19,600  Level FlightAware ADS-B
Wed 10:24:37 AM 22.8030 114.9580 263° West 387 445 19,600  Level FlightAware ADS-B
Wed 10:25:14 AM 22.7960 114.8970 263° West 387 445 19,600 -4,056 Level FlightAware ADS-B
Wed 10:25:48 AM 22.7870 114.7840 265° West 352 405 14,800 -4,114 Descending FlightAware ADS-B
Wed 10:26:24 AM 22.7810 114.7220 264° West 339 390 14,800 -167 Level FlightAware ADS-B
Wed 10:27:00 AM 22.7750 114.6640 264° West 310 357 14,600 -750 Descending FlightAware ADS-B
Wed 10:27:36 AM 22.7690 114.6090 263° West 304 350 13,900 -1,114 Descending FlightAware ADS-B
Wed 10:28:10 AM 22.7650 114.5600 265° West 300 345 13,300 -1,029 Descending FlightAware ADS-B
Wed 10:28:46 AM 22.7590 114.5040 263° West 296 341 12,700 -1,000 Descending FlightAware ADS-B
Wed 10:29:22 AM 22.7530 114.4530 263° West 293 337 12,100 -750 Descending FlightAware ADS-B
Wed 10:29:58 AM 22.7480 114.4010 264° West 264 304 11,800 -448 Descending FlightAware ADS-B
Wed 10:30:29 AM 22.7440 114.3630 263° West 244 281 11,600 -571 Descending FlightAware ADS-B
Wed 10:30:40 AM 22.7410 114.3500 256° West 241 277 11,400 -1,053 Descending FlightAware ADS-B
Wed 10:31:26 AM 22.7040 114.3140 222° Southwest 233 268 10,600 -1,098 Descending FlightAware ADS-B
Wed 10:32:02 AM 22.6760 114.2880 221° Southwest 233 268 9,900 -1,143 Descending FlightAware ADS-B
Wed 10:32:08 AM 22.6720 114.2800 242° Southwest 233 268 9,800 -857 Descending FlightAware ADS-B
Wed 10:32:16 AM 22.6710 114.2710 263° West 233 268 9,700 -1,143 Descending FlightAware ADS-B
Wed 10:32:50 AM 22.6740 114.2320 275° West 231 266 9,000 -1,200 Descending FlightAware ADS-B
Wed 10:33:06 AM 22.6780 114.2130 283° West 233 268 8,700 -1,167 Descending FlightAware ADS-B
Wed 10:33:26 AM 22.6810 114.1910 278° West 236 272 8,300 -1,143 Descending FlightAware ADS-B
Wed 10:33:48 AM 22.6860 114.1650 282° West 234 269 7,900 -1,235 Descending FlightAware ADS-B
Wed 10:34:00 AM 22.6880 114.1500 278° West 235 270 7,600 -1,235 Descending FlightAware ADS-B
Wed 10:34:22 AM 22.6930 114.1250 282° West 235 270 7,200 -882 Descending FlightAware ADS-B
Wed 10:34:34 AM 22.6950 114.1120 279° West 232 267 7,100 -882 Descending FlightAware ADS-B
Wed 10:34:56 AM 22.6990 114.0860 279° West 230 265 6,700 -1,000 Descending FlightAware ADS-B
Wed 10:35:16 AM 22.7030 114.0650 282° West 227 261 6,400 -955 Descending FlightAware ADS-B
Wed 10:35:40 AM 22.7070 114.0370 279° West 224 258 6,000 -955 Descending FlightAware ADS-B
Wed 10:36:00 AM 22.7060 114.0150 267° West 219 252 5,700 -1,050 Descending FlightAware ADS-B
Wed 10:36:20 AM 22.7040 113.9930 264° West 220 253 5,300 -1,050 Descending FlightAware ADS-B
Wed 10:36:40 AM 22.7020 113.9720 264° West 222 255 5,000 -409 Descending FlightAware ADS-B
Wed 10:37:04 AM 22.6990 113.9450 263° West 220 253 5,000  Level FlightAware ADS-B
Wed 10:37:22 AM 22.6970 113.9250 264° West 221 254 5,000  Level FlightAware ADS-B
Wed 10:37:35 AM 22.6960 113.9110 266° West 219 252 5,000  Level FlightAware ADS-B
Wed 10:37:41 AM 22.6950 113.9050 260° West 217 250 5,000  Level FlightAware ADS-B
Wed 10:38:07 AM 22.7080 113.8810 300° West 215 247 5,000  Level FlightAware ADS-B
Wed 10:38:12 AM 22.7130 113.8780 331° Northwest 214 246 5,000  Level FlightAware ADS-B
Wed 10:38:35 AM 22.7310 113.8680 333° Northwest 197 227 5,000  Level FlightAware ADS-B
Wed 10:38:56 AM 22.7480 113.8580 332° Northwest 191 220 5,000  Level FlightAware ADS-B
Wed 10:39:16 AM 22.7640 113.8490 333° Northwest 194 223 5,000  Level FlightAware ADS-B
Wed 10:39:32 AM 22.7770 113.8420 334° Northwest 190 219 5,000 -667 Level FlightAware ADS-B
Wed 10:39:52 AM 22.7930 113.8330 333° Northwest 192 221 4,600 -1,125 Descending FlightAware ADS-B
Wed 10:40:04 AM 22.8030 113.8280 335° Northwest 194 223 4,400 -1,000 Descending FlightAware ADS-B
Wed 10:40:28 AM 22.8220 113.8180 334° Northwest 196 226 4,000 -545 Descending FlightAware ADS-B
Wed 10:40:48 AM 22.8370 113.8090 331° Northwest 194 223 4,000  Level FlightAware ADS-B
Wed 10:41:00 AM 22.8470 113.8020 327° Northwest 190 219 4,000 -300 Level FlightAware ADS-B
Wed 10:41:08 AM 22.8510 113.7950 302° West 187 215 3,900 -500 Descending FlightAware ADS-B
Wed 10:41:12 AM 22.8510 113.7930 270° West 185 213 3,900  Level FlightAware ADS-B
Wed 10:41:17 AM 22.8520 113.7880 282° West 183 211 3,900 -800 Level FlightAware ADS-B
Wed 10:41:42 AM 22.8470 113.7670 256° West 177 204 3,500 -766 Descending FlightAware ADS-B
Wed 10:42:04 AM 22.8410 113.7480 251° West 174 200 3,300 -600 Descending FlightAware ADS-B
Wed 10:42:22 AM 22.8360 113.7340 249° West 172 198 3,100 -333 Descending FlightAware ADS-B
Wed 10:42:40 AM 22.8290 113.7200 242° Southwest 164 189 3,100  Level FlightAware ADS-B
Wed 10:42:48 AM 22.8250 113.7170 215° Southwest 161 185 3,100  Level FlightAware ADS-B
Wed 10:42:52 AM 22.8220 113.7160 197° South 161 185 3,100  Level FlightAware ADS-B
Wed 10:43:00 AM 22.8150 113.7150 188° South 162 186 3,100 -429 Level FlightAware ADS-B
Wed 10:43:20 AM 22.8010 113.7150 180° South 163 188 2,900 -682 Descending FlightAware ADS-B
Wed 10:43:44 AM 22.7820 113.7160 177° South 162 186 2,600 -643 Descending FlightAware ADS-B
Wed 10:43:48 AM 22.7790 113.7170 163° South 162 186 2,600 -643 Level FlightAware ADS-B
Wed 10:44:12 AM 22.7630 113.7250 155° Southeast 157 181 2,300 -698 Descending FlightAware ADS-B
Wed 10:44:31 AM 22.7520 113.7310 153° Southeast 149 171 2,100 -750 Descending FlightAware ADS-B
Wed 10:44:52 AM 22.7390 113.7390 150° Southeast 141 162 1,800 -732 Descending FlightAware ADS-B
Wed 10:45:12 AM 22.7270 113.7450 155° Southeast 139 160 1,600 -667 Descending FlightAware ADS-B
Wed 10:45:28 AM 22.7180 113.7500 153° Southeast 141 162 1,400 -667 Descending FlightAware ADS-B
Wed 10:45:48 AM 22.7060 113.7570 152° Southeast 144 166 1,200 -750 Descending FlightAware ADS-B
Wed 10:46:08 AM 22.6940 113.7630 155° Southeast 148 170 900 -750 Descending FlightAware ADS-B
Wed 10:46:28 AM 22.6820 113.7700 152° Southeast 152 175 700 -667 Descending FlightAware ADS-B
Wed 10:46:44 AM 22.6710 113.7760 153° Southeast 152 175 500 -789 Descending FlightAware ADS-B
Wed 10:47:06 AM 22.6580 113.7830 154° Southeast 150 173 200 -818 Descending FlightAware ADS-B
Wed 10:47:26 AM 22.6460 113.7900 152° Southeast 125 144 -600 Descending FlightAware ADS-B

Login

Don't have an account? Register now (free) for customized features, flight alerts, and more!